Aviation Digital Data Service (ADDS)

Output produced by METARs form (1341 UTC 11 December 2018)
found at http://www.aviationweather.gov/metar/data/
 
KDVT 111253Z AUTO 06009KT 10SM CLR 17/M01 A3003 RMK AO2 SLP153 T01721011